createdAt,value
2018-09-06T00:54:30.991Z,37.27
2018-09-06T00:57:00.213Z,38.43
2018-09-06T00:59:30.506Z,37.43
2018-09-06T01:01:59.620Z,40.53
2018-09-06T01:04:28.037Z,37.53
2018-09-06T01:06:56.818Z,38.50
2018-09-06T01:09:25.735Z,38.00
2018-09-06T01:11:55.959Z,37.77
2018-09-06T01:14:25.309Z,39.80
2018-09-06T01:16:54.067Z,39.33
2018-09-06T01:19:22.939Z,41.53
2018-09-06T01:21:51.744Z,38.63
2018-09-06T01:24:20.457Z,40.67
2018-09-06T01:26:48.904Z,41.90
2018-09-06T01:29:17.580Z,44.73
2018-09-06T01:31:46.087Z,40.77
2018-09-06T01:34:14.855Z,41.73
2018-09-06T01:36:45.618Z,55.33
2018-09-06T01:39:14.411Z,50.60
2018-09-06T01:41:45.020Z,49.50
2018-09-06T01:44:17.832Z,47.40
2018-09-06T01:46:46.903Z,51.43
2018-09-06T01:49:17.622Z,49.70
2018-09-06T01:51:46.893Z,52.57
2018-09-06T01:54:16.064Z,57.73
2018-09-06T01:56:45.475Z,56.00
2018-09-06T01:59:14.623Z,51.97
2018-09-06T02:01:43.765Z,53.73
2018-09-06T02:04:17.481Z,49.83
2018-09-06T02:06:46.262Z,47.50
2018-09-06T02:09:17.169Z,45.67
2018-09-06T02:11:45.576Z,45.10
2018-09-06T02:14:14.522Z,46.33
2018-09-06T02:16:43.684Z,44.03
2018-09-06T02:19:12.471Z,45.30
2018-09-06T02:21:41.141Z,42.17
2018-09-06T02:24:09.965Z,41.57
2018-09-06T02:26:38.661Z,42.97
2018-09-06T02:29:07.785Z,45.30
2018-09-06T02:31:36.929Z,44.47
2018-09-06T02:34:06.416Z,42.77
2018-09-06T02:36:35.208Z,41.93
2018-09-06T02:39:05.205Z,42.73
2018-09-06T02:41:34.185Z,46.43
2018-09-06T02:44:03.244Z,46.37
2018-09-06T02:46:31.914Z,47.53
2018-09-06T02:49:00.594Z,42.50
2018-09-06T02:51:29.645Z,41.87
2018-09-06T02:53:58.351Z,41.80
2018-09-06T02:56:26.977Z,42.50
2018-09-06T02:58:55.568Z,40.33
2018-09-06T03:01:24.723Z,41.00
2018-09-06T03:03:53.351Z,42.17
2018-09-06T03:06:22.977Z,40.03
2018-09-06T03:08:51.614Z,38.37
2018-09-06T03:11:31.250Z,38.87
2018-09-06T03:14:00.301Z,36.57
2018-09-06T03:16:30.003Z,38.17
2018-09-06T03:18:59.020Z,38.60
2018-09-06T03:21:27.877Z,40.63
2018-09-06T03:23:58.276Z,38.87
2018-09-06T03:26:26.996Z,40.27
2018-09-06T03:28:57.536Z,40.07
2018-09-06T03:31:25.989Z,39.27
2018-09-06T03:33:54.906Z,37.53
2018-09-06T03:36:23.728Z,35.50
2018-09-06T03:38:52.401Z,34.63
2018-09-06T03:41:22.259Z,35.07
2018-09-06T03:43:50.656Z,34.77
2018-09-06T03:46:19.377Z,35.17
2018-09-06T03:48:48.270Z,35.63
2018-09-06T03:51:16.728Z,38.30
2018-09-06T03:53:46.584Z,37.47
2018-09-06T03:56:15.266Z,38.03
2018-09-06T03:58:44.386Z,39.73
2018-09-06T04:01:13.478Z,39.87
2018-09-06T04:03:42.297Z,38.70
2018-09-06T04:06:12.815Z,35.73
2018-09-06T04:08:42.869Z,40.07
2018-09-06T04:11:13.185Z,41.27
2018-09-06T04:13:42.140Z,42.63
2018-09-06T04:16:10.923Z,42.10
2018-09-06T04:18:40.393Z,43.23
2018-09-06T04:21:08.820Z,40.63
2018-09-06T04:23:38.075Z,41.67
2018-09-06T04:26:07.237Z,39.07
2018-09-06T04:28:40.007Z,40.37
2018-09-06T04:31:10.347Z,40.83
2018-09-06T04:33:39.321Z,40.20
2018-09-06T04:36:08.169Z,37.67
2018-09-06T04:38:37.037Z,37.70
2018-09-06T04:41:05.772Z,38.27
2018-09-06T04:43:36.063Z,39.77
2018-09-06T04:46:06.414Z,37.63
2018-09-06T04:48:35.168Z,39.83
2018-09-06T04:51:05.320Z,41.23
2018-09-06T04:53:33.815Z,40.10
2018-09-06T04:56:02.495Z,43.37
2018-09-06T04:58:31.256Z,42.20
2018-09-06T05:01:00.919Z,40.47
2018-09-06T05:03:29.371Z,40.63
2018-09-06T05:05:58.157Z,41.30
2018-09-06T05:08:28.379Z,41.67
2018-09-06T05:10:58.235Z,39.80
2018-09-06T05:13:27.208Z,37.90
2018-09-06T05:15:56.068Z,38.97
2018-09-06T05:18:24.975Z,38.60
2018-09-06T05:20:54.047Z,38.70
2018-09-06T05:23:23.452Z,40.40
2018-09-06T05:25:52.204Z,42.17
2018-09-06T05:28:20.830Z,44.93
2018-09-06T05:30:49.644Z,45.37
2018-09-06T05:33:18.435Z,45.17
2018-09-06T05:35:47.522Z,41.70
2018-09-06T05:38:16.400Z,47.77
2018-09-06T05:40:45.153Z,45.03
2018-09-06T05:43:13.656Z,44.67
2018-09-06T05:45:42.605Z,41.33
2018-09-06T05:48:11.096Z,42.40
2018-09-06T05:50:40.992Z,43.40
2018-09-06T05:53:09.873Z,47.83
2018-09-06T05:55:39.034Z,38.97
2018-09-06T05:58:08.926Z,37.53
2018-09-06T06:00:42.636Z,36.37
2018-09-06T06:03:12.924Z,35.00
2018-09-06T06:05:41.978Z,33.47
2018-09-06T06:08:23.924Z,32.13
2018-09-06T06:10:52.988Z,31.87
2018-09-06T06:13:23.957Z,30.17
2018-09-06T06:15:53.396Z,27.83
2018-09-06T06:18:22.532Z,27.90
2018-09-06T06:20:52.547Z,24.97
2018-09-06T06:23:21.387Z,24.63
2018-09-06T06:25:50.364Z,24.27
2018-09-06T06:28:19.168Z,25.27
2018-09-06T06:30:47.904Z,25.10
2018-09-06T06:33:16.544Z,24.50
2018-09-06T06:35:44.935Z,23.43
2018-09-06T06:38:15.210Z,23.67
2018-09-06T06:40:44.035Z,23.97
2018-09-06T06:43:12.651Z,23.30
2018-09-06T06:45:41.065Z,22.73
2018-09-06T06:48:09.755Z,21.83
2018-09-06T06:50:39.575Z,20.60
2018-09-06T06:53:08.533Z,21.50
2018-09-06T06:55:39.797Z,21.27
2018-09-06T06:58:08.635Z,20.27
2018-09-06T07:00:42.084Z,21.77
2018-09-06T07:03:12.457Z,21.80
2018-09-06T07:05:45.915Z,20.30
2018-09-06T07:08:15.020Z,21.07
2018-09-06T07:10:43.793Z,20.73
2018-09-06T07:13:12.611Z,20.23
2018-09-06T07:15:41.234Z,19.93
2018-09-06T07:18:11.039Z,19.03
2018-09-06T07:20:39.628Z,18.67
2018-09-06T07:23:08.422Z,19.20
2018-09-06T07:25:37.036Z,18.43
2018-09-06T07:28:06.025Z,18.77
2018-09-06T07:30:35.471Z,19.00
2018-09-06T07:33:04.008Z,18.63
2018-09-06T07:35:32.784Z,19.60
2018-09-06T07:38:01.706Z,19.40
2018-09-06T07:40:31.487Z,19.47
2018-09-06T07:43:00.519Z,18.25
2018-09-06T07:45:29.200Z,19.55
2018-09-06T07:47:59.310Z,19.00
2018-09-06T07:50:27.913Z,19.50
2018-09-06T07:52:56.741Z,19.95
2018-09-06T07:55:26.771Z,19.48
2018-09-06T07:57:55.208Z,20.35
2018-09-06T08:00:26.010Z,19.60
2018-09-06T08:02:54.843Z,19.75
2018-09-06T08:05:23.928Z,19.87
2018-09-06T08:07:54.096Z,19.50
2018-09-06T08:10:23.333Z,20.08
2018-09-06T08:12:51.963Z,18.90
2018-09-06T08:15:22.011Z,19.92
2018-09-06T08:17:55.577Z,20.43
2018-09-06T08:20:24.779Z,19.42
2018-09-06T08:22:54.494Z,19.07
2018-09-06T08:25:23.250Z,19.37
2018-09-06T08:27:54.945Z,18.27
2018-09-06T08:30:25.215Z,19.05
2018-09-06T08:32:55.300Z,19.35
2018-09-06T08:35:24.088Z,18.87
2018-09-06T08:37:54.939Z,18.57
2018-09-06T08:40:25.193Z,18.77
2018-09-06T08:42:53.972Z,18.40
2018-09-06T08:45:23.866Z,17.60
2018-09-06T08:47:52.875Z,17.35
2018-09-06T08:50:21.488Z,17.12
2018-09-06T08:52:52.757Z,17.02
2018-09-06T08:55:21.480Z,17.20
2018-09-06T08:57:50.759Z,18.15
2018-09-06T09:00:19.929Z,16.42
2018-09-06T09:02:50.075Z,16.75
2018-09-06T09:05:18.834Z,16.75
2018-09-06T09:07:47.819Z,17.32
2018-09-06T09:10:16.803Z,16.52
2018-09-06T09:12:45.694Z,16.93
2018-09-06T09:15:14.761Z,16.45
2018-09-06T09:17:43.935Z,17.62
2018-09-06T09:20:14.229Z,15.85
2018-09-06T09:22:42.904Z,16.07
2018-09-06T09:25:12.035Z,16.80
2018-09-06T09:27:41.275Z,15.47
2018-09-06T09:30:11.454Z,15.18
2018-09-06T09:32:40.560Z,16.82
2018-09-06T09:35:09.319Z,15.03
2018-09-06T09:37:37.923Z,16.87
2018-09-06T09:40:08.120Z,16.77
2018-09-06T09:42:36.785Z,15.00
2018-09-06T09:45:06.060Z,14.45
2018-09-06T09:50:03.330Z,15.13
2018-09-06T09:52:33.218Z,13.85
2018-09-06T09:55:02.374Z,14.35
2018-09-06T09:57:30.942Z,13.62
2018-09-06T09:59:59.843Z,15.03
2018-09-06T10:02:36.021Z,13.85
2018-09-06T10:05:10.676Z,14.98
2018-09-06T10:08:01.681Z,14.60
2018-09-06T10:10:31.034Z,14.00
2018-09-06T10:13:00.002Z,13.58
2018-09-06T10:15:30.507Z,13.38
2018-09-06T10:17:59.875Z,13.43
2018-09-06T10:20:28.692Z,12.58
2018-09-06T10:22:59.341Z,13.68
2018-09-06T10:25:28.045Z,12.82
2018-09-06T10:27:56.862Z,13.00
2018-09-06T10:30:26.881Z,13.90
2018-09-06T10:32:55.788Z,12.40
2018-09-06T10:35:24.585Z,11.43
2018-09-06T10:37:56.428Z,10.85
2018-09-06T10:40:26.365Z,10.43
2018-09-06T10:42:56.055Z,10.25
2018-09-06T10:45:24.745Z,11.40
2018-09-06T10:47:54.899Z,10.45
2018-09-06T10:50:23.487Z,10.03
2018-09-06T10:52:52.660Z,9.70
2018-09-06T10:55:23.166Z,10.32
2018-09-06T10:57:51.606Z,10.30
2018-09-06T11:00:20.613Z,10.05
2018-09-06T11:02:49.247Z,9.90
2018-09-06T11:05:19.925Z,10.73
2018-09-06T11:07:48.725Z,11.07
2018-09-06T11:10:17.710Z,11.33
2018-09-06T11:12:46.254Z,9.93
2018-09-06T11:15:14.966Z,10.10
2018-09-06T11:17:44.016Z,10.37
2018-09-06T11:20:13.198Z,11.13
2018-09-06T11:22:42.231Z,10.50
2018-09-06T11:25:11.072Z,10.27
2018-09-06T11:27:40.461Z,10.37
2018-09-06T11:30:10.981Z,10.23
2018-09-06T11:32:41.480Z,10.10
2018-09-06T11:35:10.677Z,10.97
2018-09-06T11:37:39.517Z,11.40
2018-09-06T11:40:09.555Z,10.87
2018-09-06T11:42:38.625Z,10.20
2018-09-06T11:45:07.665Z,9.83
2018-09-06T11:47:36.520Z,10.53
2018-09-06T11:50:05.439Z,10.53
2018-09-06T11:52:34.121Z,10.67
2018-09-06T11:55:03.315Z,10.73
2018-09-06T11:57:31.961Z,10.93
2018-09-06T12:00:00.947Z,10.47
2018-09-06T12:02:31.296Z,10.20
2018-09-06T12:05:00.088Z,10.60
2018-09-06T12:07:28.973Z,10.10
2018-09-06T12:09:57.791Z,10.60
2018-09-06T12:12:27.175Z,11.10
2018-09-06T12:14:56.796Z,10.80
2018-09-06T12:17:25.557Z,10.00
2018-09-06T12:19:54.025Z,10.67
2018-09-06T12:22:23.367Z,10.57
2018-09-06T12:24:52.598Z,10.77
2018-09-06T12:27:21.240Z,10.13
2018-09-06T12:29:49.654Z,10.07
2018-09-06T12:32:18.646Z,9.67
2018-09-06T12:34:48.730Z,9.63
2018-09-06T12:37:18.664Z,10.17
2018-09-06T12:39:47.373Z,9.47
2018-09-06T12:42:16.833Z,10.57
2018-09-06T12:44:45.580Z,9.67
2018-09-06T12:47:15.474Z,10.00
2018-09-06T12:49:44.610Z,8.97
2018-09-06T12:52:14.385Z,9.43
2018-09-06T12:54:44.186Z,9.80
2018-09-06T12:57:12.967Z,9.07
2018-09-06T12:59:42.956Z,9.73
2018-09-06T13:02:12.690Z,10.07
2018-09-06T13:04:41.388Z,9.67
2018-09-06T13:07:10.471Z,9.90
2018-09-06T13:09:39.072Z,9.67
2018-09-06T13:12:09.078Z,9.50
2018-09-06T13:14:37.971Z,9.40
2018-09-06T13:17:06.723Z,9.07
2018-09-06T13:19:35.964Z,10.07
2018-09-06T13:22:04.877Z,9.67
2018-09-06T13:24:34.173Z,10.30
2018-09-06T13:27:02.813Z,10.40
2018-09-06T13:29:31.526Z,10.20
2018-09-06T13:32:02.441Z,10.60
2018-09-06T13:34:31.267Z,9.50
2018-09-06T13:37:00.062Z,9.07
2018-09-06T13:39:28.918Z,9.80
2018-09-06T13:41:58.152Z,10.30
2018-09-06T13:44:28.284Z,9.63
2018-09-06T13:46:57.257Z,9.93
2018-09-06T13:49:26.422Z,9.33
2018-09-06T13:51:54.875Z,9.03
2018-09-06T13:54:24.001Z,9.57
2018-09-06T13:56:52.527Z,9.50
2018-09-06T13:59:22.833Z,9.60
2018-09-06T14:01:52.307Z,9.20
2018-09-06T14:04:21.209Z,8.63
2018-09-06T14:06:49.816Z,9.37
2018-09-06T14:09:20.089Z,8.80
2018-09-06T14:11:48.923Z,8.87
2018-09-06T14:14:18.033Z,9.30
2018-09-06T14:16:46.504Z,9.17
2018-09-06T14:19:15.140Z,9.53
2018-09-06T14:21:43.804Z,9.60
2018-09-06T14:24:13.060Z,9.30
2018-09-06T14:26:42.107Z,10.00
2018-09-06T14:29:10.813Z,9.10
2018-09-06T14:31:41.312Z,9.23
2018-09-06T14:34:10.685Z,9.83
2018-09-06T14:36:39.593Z,9.83
2018-09-06T14:39:09.812Z,9.37
2018-09-06T14:41:39.020Z,8.93
2018-09-06T14:44:07.811Z,9.43
2018-09-06T14:46:39.500Z,9.80
2018-09-06T14:49:08.261Z,9.23
2018-09-06T14:51:37.314Z,10.20
2018-09-06T14:54:06.400Z,9.47
2018-09-06T14:56:35.346Z,9.30
2018-09-06T14:59:06.581Z,9.43
2018-09-06T15:01:35.840Z,9.60
2018-09-06T15:04:09.372Z,9.43
2018-09-06T15:06:39.432Z,9.93
2018-09-06T15:09:11.856Z,9.47
2018-09-06T15:11:42.088Z,10.00
2018-09-06T15:14:23.300Z,9.77
2018-09-06T15:16:51.984Z,10.87
2018-09-06T15:19:22.377Z,9.87
2018-09-06T15:21:51.133Z,9.97
2018-09-06T15:24:20.101Z,10.17
2018-09-06T15:26:48.887Z,10.00
2018-09-06T15:29:17.577Z,9.80
2018-09-06T15:31:47.524Z,9.87
2018-09-06T15:34:16.589Z,11.97
2018-09-06T15:36:46.728Z,10.30
2018-09-06T15:39:15.900Z,8.90
2018-09-06T15:41:47.589Z,9.23
2018-09-06T15:44:18.418Z,9.43
2018-09-06T15:46:47.422Z,8.80
2018-09-06T15:49:17.998Z,9.17
2018-09-06T15:51:47.298Z,9.33
2018-09-06T15:54:16.377Z,9.67
2018-09-06T15:56:45.178Z,9.30
2018-09-06T15:59:14.372Z,9.07
2018-09-06T16:01:42.995Z,12.33
2018-09-06T16:04:13.874Z,9.93
2018-09-06T16:06:44.470Z,9.43
2018-09-06T16:09:13.372Z,9.93
2018-09-06T16:11:43.001Z,10.27
2018-09-06T16:14:14.216Z,9.53
2018-09-06T16:16:44.211Z,8.37
2018-09-06T16:19:14.588Z,10.57
2018-09-06T16:21:46.717Z,10.00
2018-09-06T16:24:20.044Z,8.63
2018-09-06T16:26:51.470Z,10.30
2018-09-06T16:29:22.831Z,8.80
2018-09-06T16:31:52.288Z,9.53
2018-09-06T16:34:21.785Z,10.73
2018-09-06T16:36:50.789Z,10.37
2018-09-06T16:39:19.749Z,10.40
2018-09-06T16:41:48.847Z,10.20
2018-09-06T16:44:18.897Z,9.83
2018-09-06T16:46:47.749Z,8.87
2018-09-06T16:49:25.906Z,9.30
2018-09-06T16:51:55.129Z,13.77
2018-09-06T16:54:24.498Z,13.87
2018-09-06T16:56:54.177Z,11.20
2018-09-06T16:59:24.178Z,10.70
2018-09-06T17:01:54.033Z,9.40
2018-09-06T17:04:24.186Z,9.50
2018-09-06T17:06:53.529Z,9.43
2018-09-06T17:09:26.450Z,8.87
2018-09-06T17:11:59.651Z,9.93
2018-09-06T17:14:29.294Z,10.20
2018-09-06T17:16:58.407Z,9.67
2018-09-06T17:19:27.714Z,10.00
2018-09-06T17:21:56.390Z,8.53
2018-09-06T17:24:25.387Z,9.70
2018-09-06T17:26:54.827Z,9.33
2018-09-06T17:29:24.543Z,8.93
2018-09-06T17:31:53.266Z,9.83
2018-09-06T17:34:22.068Z,9.87
2018-09-06T17:36:51.096Z,9.27
2018-09-06T17:39:22.098Z,10.30
2018-09-06T17:41:50.892Z,9.87
2018-09-06T17:44:19.771Z,11.63
2018-09-06T17:46:49.506Z,10.40
2018-09-06T17:49:17.925Z,10.37
2018-09-06T17:51:46.900Z,9.63
2018-09-06T17:54:15.757Z,10.47
2018-09-06T17:56:45.505Z,10.83
2018-09-06T17:59:14.641Z,10.50
2018-09-06T18:01:45.151Z,9.87
2018-09-06T18:04:13.725Z,11.37
2018-09-06T18:06:43.999Z,10.50
2018-09-06T18:09:13.497Z,10.27
2018-09-06T18:11:44.481Z,11.13
2018-09-06T18:14:14.541Z,10.60
2018-09-06T18:16:43.648Z,11.23
2018-09-06T18:19:12.682Z,10.40
2018-09-06T18:21:41.995Z,11.43
2018-09-06T18:24:11.200Z,10.53
2018-09-06T18:26:41.127Z,10.83
2018-09-06T18:29:11.806Z,11.47
2018-09-06T18:31:40.511Z,11.17
2018-09-06T18:34:09.649Z,10.63
2018-09-06T18:36:38.094Z,10.93
2018-09-06T18:39:07.724Z,12.77
2018-09-06T18:41:36.863Z,12.10
2018-09-06T18:44:05.623Z,11.87
2018-09-06T18:46:34.125Z,11.40
2018-09-06T18:49:02.786Z,11.57
2018-09-06T18:51:32.615Z,11.17
2018-09-06T18:54:01.625Z,12.03
2018-09-06T18:56:32.091Z,12.67
2018-09-06T18:59:00.931Z,11.57
2018-09-06T19:01:30.246Z,11.53
2018-09-06T19:03:59.108Z,12.67
2018-09-06T19:06:28.100Z,12.17
2018-09-06T19:09:00.315Z,11.97
2018-09-06T19:11:30.373Z,12.13
2018-09-06T19:14:00.459Z,12.67
2018-09-06T19:16:30.465Z,12.20
2018-09-06T19:19:00.877Z,12.90
2018-09-06T19:21:31.571Z,12.50
2018-09-06T19:24:03.265Z,12.70
2018-09-06T19:26:33.587Z,11.87
2018-09-06T19:29:02.869Z,13.03
2018-09-06T19:31:34.415Z,12.43
2018-09-06T19:34:04.789Z,12.13
2018-09-06T19:36:35.773Z,12.90
2018-09-06T19:39:08.811Z,12.97
2018-09-06T19:41:46.652Z,13.33
2018-09-06T19:44:15.679Z,13.13
2018-09-06T19:46:45.106Z,12.40
2018-09-06T19:49:13.737Z,12.93
2018-09-06T19:51:42.530Z,13.30
2018-09-06T19:54:11.499Z,13.00
2018-09-06T19:56:42.230Z,13.70
2018-09-06T19:59:11.272Z,13.13
2018-09-06T20:01:40.637Z,13.70
2018-09-06T20:04:09.731Z,13.17
2018-09-06T20:06:39.145Z,13.13
2018-09-06T20:09:09.580Z,13.77
2018-09-06T20:11:38.509Z,14.47
2018-09-06T20:14:07.781Z,14.00
2018-09-06T20:16:36.699Z,13.50
2018-09-06T20:19:05.804Z,12.97
2018-09-06T20:21:34.787Z,12.47
2018-09-06T20:24:03.977Z,13.03
2018-09-06T20:26:32.902Z,12.13
2018-09-06T20:29:03.639Z,12.53
2018-09-06T20:31:33.951Z,13.03
2018-09-06T20:34:02.845Z,12.53
2018-09-06T20:36:31.252Z,11.83
2018-09-06T20:39:00.705Z,10.83
2018-09-06T20:41:29.662Z,10.27
2018-09-06T20:44:01.337Z,9.83
2018-09-06T20:46:29.830Z,9.63
2018-09-06T20:48:58.454Z,9.80
2018-09-06T20:51:27.580Z,10.63
2018-09-06T20:53:56.577Z,10.53
2018-09-06T20:56:25.070Z,10.50
2018-09-06T20:58:53.846Z,10.53
2018-09-06T21:01:22.440Z,10.57
2018-09-06T21:03:51.180Z,10.63
2018-09-06T21:06:19.860Z,9.70
2018-09-06T21:08:48.695Z,9.67
2018-09-06T21:11:17.638Z,9.77
2018-09-06T21:13:46.339Z,10.23
2018-09-06T21:16:15.327Z,9.90
2018-09-06T21:18:44.866Z,9.20
2018-09-06T21:21:15.229Z,9.33
2018-09-06T21:23:44.400Z,9.27
2018-09-06T21:26:13.447Z,9.63
2018-09-06T21:28:42.922Z,9.90
2018-09-06T21:31:11.602Z,9.80
2018-09-06T21:33:40.126Z,9.53
2018-09-06T21:36:09.206Z,9.67
2018-09-06T21:38:38.596Z,9.57
2018-09-06T21:41:07.697Z,9.53
2018-09-06T21:43:36.528Z,9.93
2018-09-06T21:46:09.062Z,9.70
2018-09-06T21:48:37.772Z,9.83
2018-09-06T21:51:08.316Z,9.60
